createdAt,value
2023-01-26T00:01:21.412Z,7.65
2023-01-26T00:03:49.153Z,8.05
2023-01-26T00:06:20.575Z,7.22
2023-01-26T00:08:53.502Z,7.82
2023-01-26T00:11:24.846Z,7.15
2023-01-26T00:13:51.910Z,8.02
2023-01-26T00:16:19.484Z,7.80
2023-01-26T00:18:46.808Z,7.20
2023-01-26T00:21:17.722Z,7.30
2023-01-26T00:23:45.512Z,7.78
2023-01-26T00:26:17.459Z,8.02
2023-01-26T00:28:45.033Z,7.30
2023-01-26T00:31:22.431Z,6.88
2023-01-26T00:33:49.852Z,6.57
2023-01-26T00:36:16.675Z,6.57
2023-01-26T00:38:43.546Z,6.15
2023-01-26T00:41:30.896Z,7.18
2023-01-26T00:43:58.064Z,7.63
2023-01-26T00:46:25.004Z,5.35
2023-01-26T00:48:52.096Z,8.52
2023-01-26T00:51:18.961Z,7.50
2023-01-26T00:53:45.768Z,10.75
2023-01-26T00:56:14.850Z,8.63
2023-01-26T00:58:42.388Z,8.45
2023-01-26T01:01:09.594Z,8.48
2023-01-26T01:03:36.439Z,9.00
2023-01-26T01:06:03.377Z,8.40
2023-01-26T01:08:30.128Z,9.38
2023-01-26T01:11:06.322Z,9.98
2023-01-26T01:13:33.430Z,9.55
2023-01-26T01:16:00.319Z,9.50
2023-01-26T01:18:27.191Z,9.10
2023-01-26T01:20:53.959Z,9.35
2023-01-26T01:23:20.810Z,10.93
2023-01-26T01:25:47.789Z,9.75
2023-01-26T01:28:14.729Z,9.90
2023-01-26T01:30:41.573Z,12.70
2023-01-26T01:33:08.458Z,10.32
2023-01-26T01:35:35.966Z,11.85
2023-01-26T01:38:02.874Z,13.32
2023-01-26T01:40:29.760Z,10.80
2023-01-26T01:42:56.562Z,13.50
2023-01-26T01:45:26.220Z,13.73
2023-01-26T01:48:04.141Z,13.30
2023-01-26T01:50:39.541Z,14.65
2023-01-26T01:53:13.829Z,17.08
2023-01-26T01:55:42.278Z,16.08
2023-01-26T01:58:09.775Z,17.05
2023-01-26T02:00:36.591Z,20.17
2023-01-26T02:03:15.182Z,24.13
2023-01-26T02:06:23.784Z,20.75
2023-01-26T02:08:56.418Z,25.48
2023-01-26T02:11:32.262Z,27.02
2023-01-26T02:14:01.244Z,24.67
2023-01-26T02:16:28.265Z,25.58
2023-01-26T02:18:55.084Z,28.77
2023-01-26T02:21:24.357Z,26.15
2023-01-26T02:24:03.691Z,27.80
2023-01-26T02:26:34.574Z,25.90
2023-01-26T02:29:04.193Z,26.40
2023-01-26T02:31:31.603Z,30.90
2023-01-26T02:33:58.465Z,28.23
2023-01-26T02:36:27.633Z,29.48
2023-01-26T02:39:22.516Z,25.55
2023-01-26T02:42:10.003Z,28.40
2023-01-26T02:44:39.391Z,28.63
2023-01-26T02:47:15.469Z,30.52
2023-01-26T02:49:50.546Z,31.77
2023-01-26T02:52:27.878Z,28.05
2023-01-26T02:55:14.625Z,28.58
2023-01-26T02:57:42.175Z,26.48
2023-01-26T03:00:24.491Z,27.80
2023-01-26T03:02:54.135Z,25.90
2023-01-26T03:05:21.158Z,30.35
2023-01-26T03:07:48.441Z,27.77
2023-01-26T03:10:18.556Z,29.98
2023-01-26T03:12:46.440Z,29.38
2023-01-26T03:15:31.525Z,26.88
2023-01-26T03:21:28.061Z,27.50
2023-01-26T03:24:13.781Z,31.45
2023-01-26T03:26:59.239Z,28.20
2023-01-26T03:29:27.102Z,29.15
2023-01-26T03:31:54.452Z,26.55
2023-01-26T03:34:21.896Z,28.15
2023-01-26T03:36:49.587Z,28.45
2023-01-26T03:39:34.971Z,28.15
2023-01-26T03:42:20.803Z,30.05
2023-01-26T03:45:06.038Z,25.02
2023-01-26T03:47:53.650Z,23.35
2023-01-26T03:50:39.431Z,30.08
2023-01-26T03:53:36.186Z,26.20
2023-01-26T03:56:22.076Z,23.25
2023-01-26T03:58:54.429Z,24.35
2023-01-26T04:01:28.314Z,22.75
2023-01-26T04:04:16.542Z,16.43
2023-01-26T04:07:05.005Z,26.40
2023-01-26T04:09:36.876Z,22.92
2023-01-26T04:12:04.740Z,26.33
2023-01-26T04:14:50.815Z,22.83
2023-01-26T04:17:37.776Z,23.08
2023-01-26T04:20:25.072Z,24.23
2023-01-26T04:22:52.435Z,24.60
2023-01-26T04:25:22.018Z,25.10
2023-01-26T04:27:48.832Z,24.17
2023-01-26T04:30:17.540Z,25.48
2023-01-26T04:32:46.370Z,27.42
2023-01-26T04:35:13.738Z,25.65
2023-01-26T04:37:40.848Z,27.20
2023-01-26T04:40:09.377Z,24.40
2023-01-26T04:42:36.523Z,23.63
2023-01-26T04:45:03.993Z,24.98
2023-01-26T04:47:30.848Z,23.23
2023-01-26T04:49:58.034Z,24.55
2023-01-26T04:52:24.825Z,23.83
2023-01-26T04:54:51.618Z,26.10
2023-01-26T04:57:21.261Z,24.92
2023-01-26T04:59:48.021Z,26.73
2023-01-26T05:02:15.263Z,24.65
2023-01-26T05:04:42.116Z,26.05
2023-01-26T05:07:09.063Z,26.05
2023-01-26T05:09:35.928Z,26.83
2023-01-26T05:12:22.867Z,25.48
2023-01-26T05:14:49.629Z,26.63
2023-01-26T05:17:16.388Z,26.48
2023-01-26T05:19:43.554Z,25.50
2023-01-26T05:22:12.422Z,26.38
2023-01-26T05:24:39.615Z,26.80
2023-01-26T05:27:21.527Z,27.65
2023-01-26T05:29:50.105Z,26.60
2023-01-26T05:32:17.897Z,29.20
2023-01-26T05:34:46.098Z,26.95
2023-01-26T05:37:14.943Z,27.77
2023-01-26T05:39:42.372Z,27.83
2023-01-26T05:42:09.355Z,28.67
2023-01-26T05:44:36.177Z,27.20
2023-01-26T05:47:03.118Z,25.83
2023-01-26T05:49:29.987Z,26.27
2023-01-26T05:51:57.166Z,27.30
2023-01-26T05:54:23.981Z,25.90
2023-01-26T05:56:53.428Z,25.65
2023-01-26T05:59:20.230Z,28.08
2023-01-26T06:01:47.036Z,26.30
2023-01-26T06:04:14.073Z,26.40
2023-01-26T06:06:40.984Z,23.83
2023-01-26T06:09:07.774Z,26.10
2023-01-26T06:11:34.866Z,27.35
2023-01-26T06:14:01.669Z,25.58
2023-01-26T06:16:28.708Z,27.52
2023-01-26T06:18:55.952Z,25.65
2023-01-26T06:21:22.733Z,25.80
2023-01-26T06:23:49.537Z,25.65
2023-01-26T06:26:16.384Z,23.42
2023-01-26T06:28:43.349Z,22.13
2023-01-26T06:31:11.004Z,25.55
2023-01-26T06:33:39.008Z,24.95
2023-01-26T06:36:10.185Z,25.20
2023-01-26T06:38:37.699Z,24.17
2023-01-26T06:41:07.587Z,23.75
2023-01-26T06:43:35.988Z,23.70
2023-01-26T06:46:04.773Z,23.95
2023-01-26T06:48:34.740Z,24.90
2023-01-26T06:51:21.711Z,22.52
2023-01-26T06:53:56.759Z,24.15
2023-01-26T06:56:25.066Z,22.88
2023-01-26T06:58:52.208Z,23.08
2023-01-26T07:01:21.246Z,23.88
2023-01-26T07:03:49.615Z,25.52
2023-01-26T07:06:16.572Z,25.15
2023-01-26T07:08:43.753Z,23.80
2023-01-26T07:11:11.708Z,23.52
2023-01-26T07:13:39.387Z,22.60
2023-01-26T07:16:10.717Z,22.23
2023-01-26T07:18:38.458Z,22.40
2023-01-26T07:21:09.128Z,24.30
2023-01-26T07:23:36.182Z,22.83
2023-01-26T07:26:03.211Z,24.95
2023-01-26T07:28:30.776Z,23.10
2023-01-26T07:30:58.883Z,23.90
2023-01-26T07:33:25.925Z,23.73
2023-01-26T07:35:54.225Z,23.40
2023-01-26T07:38:21.210Z,22.77
2023-01-26T07:40:48.290Z,23.85
2023-01-26T07:43:17.899Z,24.75
2023-01-26T07:45:51.682Z,23.92
2023-01-26T07:48:20.964Z,26.02
2023-01-26T07:50:48.708Z,23.50
2023-01-26T07:53:19.586Z,25.45
2023-01-26T07:55:47.352Z,24.48
2023-01-26T07:58:14.465Z,24.25
2023-01-26T08:00:41.575Z,20.73
2023-01-26T08:03:08.430Z,22.50
2023-01-26T08:05:37.160Z,22.48
2023-01-26T08:08:04.610Z,22.50
2023-01-26T08:10:32.127Z,20.50
2023-01-26T08:13:02.473Z,20.08
2023-01-26T08:15:29.609Z,18.23
2023-01-26T08:17:56.691Z,17.98
2023-01-26T08:20:23.903Z,16.67
2023-01-26T08:22:50.741Z,15.77
2023-01-26T08:25:17.578Z,15.10
2023-01-26T08:27:44.328Z,14.35
2023-01-26T08:30:12.868Z,13.68
2023-01-26T08:32:39.976Z,14.57
2023-01-26T08:35:07.693Z,13.18
2023-01-26T08:37:34.614Z,11.43
2023-01-26T08:40:01.367Z,12.30
2023-01-26T08:42:28.320Z,12.88
2023-01-26T08:44:55.264Z,12.13
2023-01-26T08:47:22.089Z,11.65
2023-01-26T08:49:48.816Z,11.65
2023-01-26T08:52:16.828Z,10.90
2023-01-26T08:54:43.644Z,10.98
2023-01-26T08:57:10.581Z,10.85
2023-01-26T08:59:37.360Z,9.85
2023-01-26T09:02:04.248Z,11.30
2023-01-26T09:04:31.108Z,12.25
2023-01-26T09:06:57.877Z,11.13
2023-01-26T09:09:24.957Z,10.23
2023-01-26T09:11:55.985Z,9.98
2023-01-26T09:14:24.107Z,10.45
2023-01-26T09:16:51.002Z,9.95
2023-01-26T09:19:17.821Z,9.43
2023-01-26T09:21:44.779Z,8.77
2023-01-26T09:24:11.770Z,8.05
2023-01-26T09:26:38.963Z,8.00
2023-01-26T09:29:05.808Z,8.30
2023-01-26T09:31:32.715Z,7.53
2023-01-26T09:33:59.910Z,8.20
2023-01-26T09:36:26.772Z,7.07
2023-01-26T09:38:54.248Z,7.63
2023-01-26T09:41:45.128Z,7.57
2023-01-26T09:44:20.661Z,8.25
2023-01-26T09:47:01.385Z,7.97
2023-01-26T09:50:01.373Z,8.27
2023-01-26T09:52:36.892Z,7.45
2023-01-26T09:55:16.200Z,8.23
2023-01-26T09:58:05.436Z,8.20
2023-01-26T10:00:35.387Z,7.32
2023-01-26T10:03:39.935Z,7.30
2023-01-26T10:06:29.674Z,8.00
2023-01-26T10:09:01.638Z,7.10
2023-01-26T10:11:43.705Z,7.20
2023-01-26T10:14:21.942Z,7.63
2023-01-26T10:16:51.872Z,7.57
2023-01-26T10:20:10.162Z,6.70
2023-01-26T10:22:45.745Z,6.40
2023-01-26T10:25:21.977Z,6.45
2023-01-26T10:27:49.702Z,6.25
2023-01-26T10:30:18.613Z,6.45
2023-01-26T10:32:50.934Z,5.38
2023-01-26T10:35:22.426Z,5.22
2023-01-26T10:37:49.984Z,5.13
2023-01-26T10:40:17.802Z,5.25
2023-01-26T10:42:57.849Z,4.88
2023-01-26T10:45:31.471Z,5.38
2023-01-26T10:48:16.471Z,4.57
2023-01-26T10:50:44.500Z,4.32
2023-01-26T10:53:29.867Z,4.35
2023-01-26T10:56:15.022Z,4.28
2023-01-26T10:58:50.335Z,3.80
2023-01-26T11:01:18.963Z,4.30
2023-01-26T11:04:06.940Z,4.22
2023-01-26T11:06:35.562Z,4.22
2023-01-26T11:09:19.752Z,4.22
2023-01-26T11:12:05.999Z,4.18
2023-01-26T11:14:35.009Z,3.83
2023-01-26T11:17:15.391Z,4.05
2023-01-26T11:20:01.981Z,4.22
2023-01-26T11:22:36.957Z,3.95
2023-01-26T11:25:43.510Z,3.63
2023-01-26T11:28:44.204Z,3.70
2023-01-26T11:31:31.509Z,4.00
2023-01-26T11:34:23.516Z,4.00
2023-01-26T11:37:15.553Z,4.78
2023-01-26T11:39:45.140Z,5.13
2023-01-26T11:43:01.707Z,4.28
2023-01-26T11:45:38.551Z,4.65
2023-01-26T11:48:22.850Z,4.78
2023-01-26T11:51:05.661Z,4.00
2023-01-26T11:53:57.828Z,4.30
2023-01-26T11:57:00.036Z,4.07
2023-01-26T12:00:29.595Z,3.88
2023-01-26T12:03:06.441Z,3.17
2023-01-26T12:05:56.400Z,2.65
2023-01-26T12:08:42.085Z,3.60
2023-01-26T12:11:30.223Z,3.38
2023-01-26T12:14:02.917Z,3.00
2023-01-26T12:16:49.178Z,3.15
2023-01-26T12:19:40.796Z,2.90
2023-01-26T12:22:26.842Z,3.10
2023-01-26T12:25:24.675Z,3.10
2023-01-26T12:28:02.288Z,3.15
2023-01-26T12:30:37.108Z,3.13
2023-01-26T12:36:08.631Z,3.25
2023-01-26T12:39:31.584Z,2.65
2023-01-26T12:42:04.051Z,3.60
2023-01-26T12:44:38.202Z,3.63
2023-01-26T12:47:15.427Z,3.63
2023-01-26T12:50:43.712Z,3.50
2023-01-26T12:53:31.631Z,2.90
2023-01-26T12:56:10.527Z,3.38
2023-01-26T12:58:45.500Z,2.65
2023-01-26T13:01:20.379Z,3.53
2023-01-26T13:06:32.084Z,3.00
2023-01-26T13:09:23.773Z,3.30
2023-01-26T13:11:57.215Z,3.40
2023-01-26T13:14:25.273Z,3.65
2023-01-26T13:16:52.441Z,3.90
2023-01-26T13:19:44.854Z,3.70
2023-01-26T13:22:24.041Z,3.83
2023-01-26T13:25:14.921Z,3.60
2023-01-26T13:27:55.778Z,3.28
2023-01-26T13:30:22.760Z,3.45
2023-01-26T13:32:49.559Z,3.53
2023-01-26T13:35:23.680Z,3.58
2023-01-26T13:37:58.453Z,3.03
2023-01-26T13:43:27.928Z,3.05
2023-01-26T13:46:22.466Z,3.42
2023-01-26T13:48:54.471Z,3.78
2023-01-26T13:51:28.549Z,3.72
2023-01-26T13:54:04.581Z,3.97
2023-01-26T13:56:35.183Z,3.65
2023-01-26T13:59:07.421Z,3.72
2023-01-26T14:01:37.185Z,3.40
2023-01-26T14:04:09.653Z,4.28
2023-01-26T14:06:38.664Z,3.97
2023-01-26T14:09:11.973Z,4.88
2023-01-26T14:11:38.973Z,5.80
2023-01-26T14:14:06.817Z,6.10
2023-01-26T14:16:36.707Z,4.80
2023-01-26T14:19:16.466Z,4.78
2023-01-26T14:22:00.297Z,4.68
2023-01-26T14:24:31.878Z,4.32
2023-01-26T14:26:59.023Z,4.28
2023-01-26T14:29:29.183Z,4.18
2023-01-26T14:32:00.448Z,4.22
2023-01-26T14:34:30.798Z,3.42
2023-01-26T14:37:15.801Z,3.90
2023-01-26T14:39:45.056Z,3.38
2023-01-26T14:42:18.029Z,3.97
2023-01-26T14:44:45.406Z,4.35
2023-01-26T14:47:30.420Z,3.80
2023-01-26T14:50:04.021Z,4.07
2023-01-26T14:52:35.835Z,3.63
2023-01-26T14:55:23.210Z,4.60
2023-01-26T14:57:52.167Z,5.78
2023-01-26T15:00:27.487Z,5.13
2023-01-26T15:02:58.149Z,3.47
2023-01-26T15:05:35.426Z,3.30
2023-01-26T15:08:19.734Z,2.83
2023-01-26T15:11:22.531Z,3.78
2023-01-26T15:13:55.412Z,3.08
2023-01-26T15:16:26.649Z,3.38
2023-01-26T15:19:03.086Z,2.70
2023-01-26T15:21:40.717Z,3.42
2023-01-26T15:24:15.140Z,2.63
2023-01-26T15:26:43.072Z,3.13
2023-01-26T15:29:36.312Z,3.47
2023-01-26T15:32:03.229Z,6.20
2023-01-26T15:34:36.427Z,6.00
2023-01-26T15:37:32.838Z,5.10
2023-01-26T15:39:59.922Z,3.42
2023-01-26T15:42:30.322Z,3.20
2023-01-26T15:44:57.691Z,5.25
2023-01-26T15:47:24.562Z,6.03
2023-01-26T15:49:51.586Z,5.18
2023-01-26T15:52:26.044Z,4.28
2023-01-26T15:54:54.333Z,3.30
2023-01-26T15:57:21.769Z,3.38
2023-01-26T15:59:48.583Z,3.17
2023-01-26T16:02:18.636Z,3.63
2023-01-26T16:04:45.941Z,3.28
2023-01-26T16:07:15.885Z,4.50
2023-01-26T16:09:43.170Z,3.45
2023-01-26T16:12:25.893Z,4.72
2023-01-26T16:14:58.134Z,4.25
2023-01-26T16:17:25.004Z,4.10
2023-01-26T16:19:51.935Z,3.80
2023-01-26T16:22:18.917Z,4.53
2023-01-26T16:24:46.955Z,5.72
2023-01-26T16:27:13.836Z,5.93
2023-01-26T16:29:40.809Z,7.05
2023-01-26T16:32:28.426Z,6.45
2023-01-26T16:34:55.259Z,6.20
2023-01-26T16:37:22.063Z,6.03
2023-01-26T16:39:48.822Z,5.90
2023-01-26T16:42:19.508Z,5.82
2023-01-26T16:44:46.663Z,5.88
2023-01-26T16:47:13.655Z,6.30
2023-01-26T16:49:40.461Z,5.63
2023-01-26T16:52:10.116Z,5.93
2023-01-26T16:54:36.966Z,5.50
2023-01-26T16:57:04.152Z,5.53
2023-01-26T16:59:30.963Z,5.25
2023-01-26T17:01:58.026Z,4.45
2023-01-26T17:04:25.074Z,4.47
2023-01-26T17:06:51.895Z,4.38
2023-01-26T17:09:18.799Z,4.75
2023-01-26T17:11:45.717Z,5.90
2023-01-26T17:14:13.256Z,6.68
2023-01-26T17:16:40.340Z,6.60
2023-01-26T17:19:09.100Z,5.30
2023-01-26T17:21:36.381Z,5.00
2023-01-26T17:24:03.506Z,4.65
2023-01-26T17:26:30.323Z,6.53
2023-01-26T17:28:57.321Z,4.95
2023-01-26T17:31:25.168Z,3.88
2023-01-26T17:33:52.436Z,3.67
2023-01-26T17:36:19.814Z,3.53
2023-01-26T17:38:48.570Z,3.38
2023-01-26T17:41:16.511Z,3.67
2023-01-26T17:43:43.360Z,4.13
2023-01-26T17:46:14.228Z,4.30
2023-01-26T17:48:44.859Z,3.90
2023-01-26T17:51:18.729Z,3.60
2023-01-26T17:53:48.201Z,3.78
2023-01-26T17:56:19.359Z,3.15
2023-01-26T17:58:55.794Z,3.13
2023-01-26T18:01:25.277Z,3.10
2023-01-26T18:03:53.827Z,2.78
2023-01-26T18:06:21.187Z,3.20
2023-01-26T18:08:48.667Z,3.38
2023-01-26T18:11:16.737Z,3.22
2023-01-26T18:13:44.698Z,3.03
2023-01-26T18:16:17.896Z,3.15
2023-01-26T18:18:45.812Z,3.00
2023-01-26T18:21:22.873Z,2.83
2023-01-26T18:23:53.794Z,2.88
2023-01-26T18:26:23.688Z,3.10
2023-01-26T18:28:50.883Z,3.47
2023-01-26T18:31:30.558Z,3.03
2023-01-26T18:33:59.476Z,3.40
2023-01-26T18:36:27.923Z,3.13
2023-01-26T18:39:06.141Z,3.42
2023-01-26T18:41:34.124Z,2.97
2023-01-26T18:44:03.893Z,3.50
2023-01-26T18:46:33.399Z,2.90
2023-01-26T18:49:03.763Z,3.40
2023-01-26T18:51:34.729Z,3.05
2023-01-26T18:54:04.357Z,3.70
2023-01-26T18:56:31.649Z,3.72
2023-01-26T18:58:58.967Z,3.53
2023-01-26T19:01:26.561Z,3.70
2023-01-26T19:03:57.811Z,3.38
2023-01-26T19:06:26.288Z,3.75
2023-01-26T19:09:01.036Z,3.85
2023-01-26T19:11:32.268Z,6.57
2023-01-26T19:14:00.660Z,3.78
2023-01-26T19:16:29.769Z,3.83
2023-01-26T19:18:56.787Z,3.85
2023-01-26T19:21:25.193Z,4.82
2023-01-26T19:23:54.514Z,4.95
2023-01-26T19:26:29.671Z,4.68
2023-01-26T19:28:57.033Z,4.60
2023-01-26T19:31:26.604Z,4.60
2023-01-26T19:33:56.837Z,5.68
2023-01-26T19:36:25.099Z,6.82
2023-01-26T19:38:52.389Z,9.38
2023-01-26T19:41:20.805Z,8.65
2023-01-26T19:43:48.833Z,9.00
2023-01-26T19:46:16.639Z,7.15
2023-01-26T19:48:44.739Z,9.70
2023-01-26T19:51:15.531Z,9.70
2023-01-26T19:53:46.169Z,9.10
2023-01-26T19:56:26.124Z,14.88
2023-01-26T19:58:56.480Z,11.68
2023-01-26T20:01:25.405Z,10.50
2023-01-26T20:03:59.296Z,9.50
2023-01-26T20:06:29.525Z,5.60
2023-01-26T20:08:57.071Z,6.47
2023-01-26T20:11:25.359Z,6.72
2023-01-26T20:14:11.698Z,5.35
2023-01-26T20:16:38.865Z,4.85
2023-01-26T20:19:06.424Z,5.13
2023-01-26T20:21:34.213Z,5.38
2023-01-26T20:24:05.778Z,4.45
2023-01-26T20:26:34.470Z,5.43
2023-01-26T20:29:01.469Z,4.85
2023-01-26T20:31:28.363Z,5.10
2023-01-26T20:33:55.872Z,5.05
2023-01-26T20:36:27.494Z,5.65
2023-01-26T20:38:54.921Z,5.75
2023-01-26T20:41:27.396Z,6.30
2023-01-26T20:44:00.366Z,6.05
2023-01-26T20:46:37.742Z,6.75
2023-01-26T20:49:08.889Z,6.80
2023-01-26T20:51:38.388Z,6.78
2023-01-26T20:54:07.411Z,6.80
2023-01-26T20:56:35.872Z,7.15
2023-01-26T20:59:04.637Z,6.28
2023-01-26T21:01:34.006Z,6.07
2023-01-26T21:04:02.367Z,8.30
2023-01-26T21:06:30.400Z,6.60
2023-01-26T21:09:00.129Z,7.93
2023-01-26T21:11:30.863Z,10.15
2023-01-26T21:14:01.873Z,7.30
2023-01-26T21:16:30.872Z,7.78
2023-01-26T21:18:57.792Z,7.45
2023-01-26T21:21:25.606Z,7.35
2023-01-26T21:23:52.609Z,7.90
2023-01-26T21:26:25.543Z,9.82
2023-01-26T21:28:55.209Z,8.18
2023-01-26T21:31:25.592Z,8.43
2023-01-26T21:33:53.244Z,9.18
2023-01-26T21:36:27.154Z,8.68
2023-01-26T21:38:57.095Z,7.00
2023-01-26T21:41:49.448Z,5.65
2023-01-26T21:44:20.229Z,5.32
2023-01-26T21:46:50.870Z,4.65
2023-01-26T21:49:18.278Z,4.28
2023-01-26T21:52:04.209Z,4.38
2023-01-26T21:54:31.920Z,3.97
2023-01-26T21:56:59.415Z,3.67
2023-01-26T21:59:26.491Z,4.22
2023-01-26T22:01:56.205Z,3.63
2023-01-26T22:04:30.162Z,4.43
2023-01-26T22:06:57.402Z,2.57
2023-01-26T22:09:24.964Z,4.10
2023-01-26T22:11:52.224Z,4.15
2023-01-26T22:14:26.163Z,3.63
2023-01-26T22:16:53.332Z,4.10
2023-01-26T22:19:20.370Z,4.45
2023-01-26T22:21:50.439Z,3.97
2023-01-26T22:24:18.182Z,3.50
2023-01-26T22:26:45.179Z,3.75
2023-01-26T22:29:13.320Z,4.05
2023-01-26T22:31:40.343Z,3.80
2023-01-26T22:34:07.275Z,3.60
2023-01-26T22:36:34.109Z,3.72
2023-01-26T22:39:01.153Z,3.80
2023-01-26T22:41:30.254Z,3.90
2023-01-26T22:43:59.774Z,3.72
2023-01-26T22:46:29.240Z,4.70
2023-01-26T22:48:58.575Z,4.75
2023-01-26T22:51:29.022Z,4.30
2023-01-26T22:53:58.359Z,4.18
2023-01-26T22:56:26.508Z,4.78
2023-01-26T22:58:59.391Z,4.70
2023-01-26T23:01:32.519Z,3.90
2023-01-26T23:04:01.460Z,4.43
2023-01-26T23:06:29.326Z,4.93
2023-01-26T23:08:58.211Z,4.85
2023-01-26T23:11:28.736Z,4.70
2023-01-26T23:13:58.496Z,4.60
2023-01-26T23:16:26.750Z,4.72
2023-01-26T23:18:56.412Z,4.28
2023-01-26T23:21:24.592Z,4.47
2023-01-26T23:23:51.567Z,4.38
2023-01-26T23:26:18.700Z,4.68
2023-01-26T23:28:45.781Z,3.72
2023-01-26T23:31:15.733Z,4.80
2023-01-26T23:33:43.514Z,4.10
2023-01-26T23:36:12.474Z,3.83
2023-01-26T23:38:39.491Z,4.00
2023-01-26T23:41:08.611Z,4.18
2023-01-26T23:43:36.189Z,4.35
2023-01-26T23:46:05.021Z,3.50
2023-01-26T23:48:32.064Z,3.63
2023-01-26T23:51:18.945Z,3.53
2023-01-26T23:53:45.768Z,4.03
2023-01-26T23:56:17.580Z,3.75
2023-01-26T23:58:45.910Z,3.97
